Enter the Airport ICAO Code

Search by Airport or City

Current Weather

LEPP | Pamplona Airport

Pamplona, Navarre, Spain

Last Update 21 Minutes Ago

Sky with Few Clouds

Temperature of 24 ºC

Moderate Winds from South

Temperature

24 ºC

Dew Point Temperature

14 ºC

Relative Humidity

53.77 %

Wind Direction

South (190º, Ranging from 120º to 250º)

Wind Velocity

19 km/h (10 kt)

Gusts

None

Visibility

Greater than 10 Kilometers

Sea Level Pressure

1015 hPa (Hectopascals)

Layers of Clouds

5% to 30% of Sky Covered from 914 mts (3000 ft) Above Ground Level.

METAR LEPP 191130Z 19010KT 120V250 9999 FEW030 24/14 Q1015

Weather Forecast

LEPP | Pamplona Airport

Pamplona, Navarre, Spain

Forecast valid for the next 21 Hours

From now on it is expected:

Partly Cloudy Sky

Light to Moderate Winds from SouthEast

From now on it is expected 1 hour with intermittent periods of:

Light Thunderstorm with Rain

Moderate Winds from South

Maximum Temperature

22 ºC in 3 Hours

Minimum Temperature

15 ºC in 15 Hours

TAF LEPP 190800Z 1909/2009 13009KT 9999 FEW020 SCT035 TX22/1915Z TN15/2003Z PROB30 TEMPO 1909/1913 19010KT 4000 -TSRA SCT025CB